sensor_id;sensor_type;location;lat;lon;timestamp;P1;durP1;ratioP1;P2;durP2;ratioP2
37931;SDS011;23758;42.640;23.302;2022-09-16T00:00:09;1.95;;;1.85;;
37931;SDS011;23758;42.640;23.302;2022-09-16T00:02:35;1.85;;;1.75;;
37931;SDS011;23758;42.640;23.302;2022-09-16T00:05:01;2.10;;;1.90;;
37931;SDS011;23758;42.640;23.302;2022-09-16T00:07:27;1.73;;;1.63;;
37931;SDS011;23758;42.640;23.302;2022-09-16T00:09:53;1.98;;;1.88;;
37931;SDS011;23758;42.640;23.302;2022-09-16T00:12:19;1.70;;;1.60;;
37931;SDS011;23758;42.640;23.302;2022-09-16T00:14:44;1.60;;;1.50;;
37931;SDS011;23758;42.640;23.302;2022-09-16T00:17:10;1.50;;;1.40;;
37931;SDS011;23758;42.640;23.302;2022-09-16T00:19:35;1.70;;;1.60;;
37931;SDS011;23758;42.640;23.302;2022-09-16T00:22:01;2.28;;;2.15;;
37931;SDS011;23758;42.640;23.302;2022-09-16T00:24:26;1.42;;;1.33;;
37931;SDS011;23758;42.640;23.302;2022-09-16T00:26:52;1.50;;;1.40;;
37931;SDS011;23758;42.640;23.302;2022-09-16T00:29:17;1.75;;;1.50;;
37931;SDS011;23758;42.640;23.302;2022-09-16T00:31:43;1.73;;;1.63;;
37931;SDS011;23758;42.640;23.302;2022-09-16T00:34:08;1.80;;;1.70;;
37931;SDS011;23758;42.640;23.302;2022-09-16T00:36:34;1.67;;;1.58;;
37931;SDS011;23758;42.640;23.302;2022-09-16T00:38:59;1.90;;;1.80;;
37931;SDS011;23758;42.640;23.302;2022-09-16T00:41:29;2.55;;;1.98;;
37931;SDS011;23758;42.640;23.302;2022-09-16T00:44:01;1.88;;;1.70;;
37931;SDS011;23758;42.640;23.302;2022-09-16T00:49:02;2.28;;;2.08;;
37931;SDS011;23758;42.640;23.302;2022-09-16T00:51:33;6.00;;;2.70;;
37931;SDS011;23758;42.640;23.302;2022-09-16T00:53:59;1.80;;;1.70;;
37931;SDS011;23758;42.640;23.302;2022-09-16T00:56:27;1.70;;;1.60;;
37931;SDS011;23758;42.640;23.302;2022-09-16T01:01:30;1.58;;;1.48;;
37931;SDS011;23758;42.640;23.302;2022-09-16T01:04:07;2.75;;;2.08;;
37931;SDS011;23758;42.640;23.302;2022-09-16T01:06:38;1.60;;;1.50;;
37931;SDS011;23758;42.640;23.302;2022-09-16T01:09:04;1.63;;;1.52;;
37931;SDS011;23758;42.640;23.302;2022-09-16T01:11:30;1.75;;;1.65;;
37931;SDS011;23758;42.640;23.302;2022-09-16T01:13:56;1.70;;;1.60;;
37931;SDS011;23758;42.640;23.302;2022-09-16T01:16:42;2.22;;;1.92;;
37931;SDS011;23758;42.640;23.302;2022-09-16T01:19:24;6.32;;;1.70;;
37931;SDS011;23758;42.640;23.302;2022-09-16T01:27:13;1.73;;;1.63;;
37931;SDS011;23758;42.640;23.302;2022-09-16T01:52:27;1.60;;;1.50;;
37931;SDS011;23758;42.640;23.302;2022-09-16T01:54:58;1.70;;;1.60;;
37931;SDS011;23758;42.640;23.302;2022-09-16T02:00:23;1.60;;;1.50;;
37931;SDS011;23758;42.640;23.302;2022-09-16T02:07:51;1.80;;;1.70;;
37931;SDS011;23758;42.640;23.302;2022-09-16T02:10:22;1.50;;;1.40;;
37931;SDS011;23758;42.640;23.302;2022-09-16T02:12:52;2.92;;;1.98;;
37931;SDS011;23758;42.640;23.302;2022-09-16T02:15:20;2.45;;;1.92;;
37931;SDS011;23758;42.640;23.302;2022-09-16T02:17:48;1.60;;;1.50;;
37931;SDS011;23758;42.640;23.302;2022-09-16T02:20:26;1.90;;;1.80;;
37931;SDS011;23758;42.640;23.302;2022-09-16T02:22:55;1.67;;;1.58;;
37931;SDS011;23758;42.640;23.302;2022-09-16T02:25:25;1.70;;;1.60;;
37931;SDS011;23758;42.640;23.302;2022-09-16T02:27:51;1.60;;;1.50;;
37931;SDS011;23758;42.640;23.302;2022-09-16T02:30:18;1.50;;;1.40;;
37931;SDS011;23758;42.640;23.302;2022-09-16T02:32:46;1.98;;;1.88;;
37931;SDS011;23758;42.640;23.302;2022-09-16T02:35:15;1.90;;;1.80;;
37931;SDS011;23758;42.640;23.302;2022-09-16T02:37:44;1.95;;;1.85;;
37931;SDS011;23758;42.640;23.302;2022-09-16T02:40:16;4.22;;;1.80;;
37931;SDS011;23758;42.640;23.302;2022-09-16T02:42:49;2.50;;;2.30;;
37931;SDS011;23758;42.640;23.302;2022-09-16T02:45:15;1.77;;;1.67;;
37931;SDS011;23758;42.640;23.302;2022-09-16T02:50:16;1.80;;;1.70;;
37931;SDS011;23758;42.640;23.302;2022-09-16T02:53:25;2.00;;;1.90;;
37931;SDS011;23758;42.640;23.302;2022-09-16T02:56:23;1.98;;;1.88;;
37931;SDS011;23758;42.640;23.302;2022-09-16T02:58:55;2.47;;;2.28;;
37931;SDS011;23758;42.640;23.302;2022-09-16T03:01:21;1.80;;;1.70;;
37931;SDS011;23758;42.640;23.302;2022-09-16T03:03:48;3.88;;;2.63;;
37931;SDS011;23758;42.640;23.302;2022-09-16T03:08:42;2.20;;;2.00;;
37931;SDS011;23758;42.640;23.302;2022-09-16T03:14:29;2.20;;;2.10;;
37931;SDS011;23758;42.640;23.302;2022-09-16T03:25:53;2.50;;;2.30;;
37931;SDS011;23758;42.640;23.302;2022-09-16T03:34:26;2.53;;;2.33;;
37931;SDS011;23758;42.640;23.302;2022-09-16T03:37:06;1.80;;;1.70;;
37931;SDS011;23758;42.640;23.302;2022-09-16T03:39:34;2.40;;;2.20;;
37931;SDS011;23758;42.640;23.302;2022-09-16T03:42:01;2.08;;;1.98;;
37931;SDS011;23758;42.640;23.302;2022-09-16T03:44:31;1.95;;;1.77;;
37931;SDS011;23758;42.640;23.302;2022-09-16T03:47:01;1.80;;;1.70;;
37931;SDS011;23758;42.640;23.302;2022-09-16T03:49:34;1.73;;;1.63;;
37931;SDS011;23758;42.640;23.302;2022-09-16T03:52:09;1.95;;;1.85;;
37931;SDS011;23758;42.640;23.302;2022-09-16T03:54:34;1.90;;;1.80;;
37931;SDS011;23758;42.640;23.302;2022-09-16T03:57:00;1.83;;;1.73;;
37931;SDS011;23758;42.640;23.302;2022-09-16T03:59:26;1.90;;;1.80;;
37931;SDS011;23758;42.640;23.302;2022-09-16T04:01:53;2.22;;;2.03;;
37931;SDS011;23758;42.640;23.302;2022-09-16T04:04:19;1.80;;;1.70;;
37931;SDS011;23758;42.640;23.302;2022-09-16T04:06:44;2.05;;;1.95;;
37931;SDS011;23758;42.640;23.302;2022-09-16T04:09:10;1.77;;;1.67;;
37931;SDS011;23758;42.640;23.302;2022-09-16T04:11:36;1.90;;;1.80;;
37931;SDS011;23758;42.640;23.302;2022-09-16T04:14:03;5.10;;;2.00;;
37931;SDS011;23758;42.640;23.302;2022-09-16T04:16:28;2.53;;;2.33;;
37931;SDS011;23758;42.640;23.302;2022-09-16T04:18:55;2.25;;;2.08;;
37931;SDS011;23758;42.640;23.302;2022-09-16T04:21:20;2.00;;;1.90;;
37931;SDS011;23758;42.640;23.302;2022-09-16T04:23:46;2.20;;;2.10;;
37931;SDS011;23758;42.640;23.302;2022-09-16T04:26:12;2.10;;;2.00;;
37931;SDS011;23758;42.640;23.302;2022-09-16T04:28:38;2.03;;;1.92;;
37931;SDS011;23758;42.640;23.302;2022-09-16T04:31:04;2.42;;;2.22;;
37931;SDS011;23758;42.640;23.302;2022-09-16T04:33:32;3.00;;;2.72;;
37931;SDS011;23758;42.640;23.302;2022-09-16T04:36:08;2.10;;;2.00;;
37931;SDS011;23758;42.640;23.302;2022-09-16T04:38:34;2.60;;;2.42;;
37931;SDS011;23758;42.640;23.302;2022-09-16T04:41:08;2.10;;;2.00;;
37931;SDS011;23758;42.640;23.302;2022-09-16T04:43:37;2.22;;;2.13;;
37931;SDS011;23758;42.640;23.302;2022-09-16T04:46:03;3.60;;;2.35;;
37931;SDS011;23758;42.640;23.302;2022-09-16T04:48:29;2.10;;;2.00;;
37931;SDS011;23758;42.640;23.302;2022-09-16T04:51:00;2.30;;;2.10;;
37931;SDS011;23758;42.640;23.302;2022-09-16T04:53:33;2.10;;;2.00;;
37931;SDS011;23758;42.640;23.302;2022-09-16T04:56:05;2.00;;;1.90;;
37931;SDS011;23758;42.640;23.302;2022-09-16T04:58:33;2.30;;;2.20;;
37931;SDS011;23758;42.640;23.302;2022-09-16T05:01:05;2.17;;;2.08;;
37931;SDS011;23758;42.640;23.302;2022-09-16T05:03:32;2.00;;;1.90;;
37931;SDS011;23758;42.640;23.302;2022-09-16T05:06:05;2.40;;;2.20;;
37931;SDS011;23758;42.640;23.302;2022-09-16T05:08:40;2.83;;;2.20;;
37931;SDS011;23758;42.640;23.302;2022-09-16T05:11:09;2.50;;;2.30;;
37931;SDS011;23758;42.640;23.302;2022-09-16T05:13:36;2.10;;;2.00;;
37931;SDS011;23758;42.640;23.302;2022-09-16T05:16:09;2.17;;;2.08;;
37931;SDS011;23758;42.640;23.302;2022-09-16T05:18:37;2.40;;;2.25;;
37931;SDS011;23758;42.640;23.302;2022-09-16T05:21:03;2.50;;;2.30;;
37931;SDS011;23758;42.640;23.302;2022-09-16T05:23:31;2.33;;;2.22;;
37931;SDS011;23758;42.640;23.302;2022-09-16T05:26:01;2.22;;;2.13;;
37931;SDS011;23758;42.640;23.302;2022-09-16T05:28:31;2.00;;;1.90;;
37931;SDS011;23758;42.640;23.302;2022-09-16T05:31:13;2.13;;;2.03;;
37931;SDS011;23758;42.640;23.302;2022-09-16T05:36:08;1.90;;;1.80;;
37931;SDS011;23758;42.640;23.302;2022-09-16T05:38:35;2.17;;;2.08;;
37931;SDS011;23758;42.640;23.302;2022-09-16T05:41:01;2.85;;;2.35;;
37931;SDS011;23758;42.640;23.302;2022-09-16T05:43:27;2.20;;;2.10;;
37931;SDS011;23758;42.640;23.302;2022-09-16T05:45:53;2.00;;;1.90;;
37931;SDS011;23758;42.640;23.302;2022-09-16T05:48:19;2.10;;;2.00;;
37931;SDS011;23758;42.640;23.302;2022-09-16T05:50:57;2.30;;;2.20;;
37931;SDS011;23758;42.640;23.302;2022-09-16T05:53:24;2.22;;;2.00;;
37931;SDS011;23758;42.640;23.302;2022-09-16T05:56:09;1.70;;;1.60;;
37931;SDS011;23758;42.640;23.302;2022-09-16T05:58:39;1.98;;;1.88;;
37931;SDS011;23758;42.640;23.302;2022-09-16T06:03:30;1.48;;;1.38;;
37931;SDS011;23758;42.640;23.302;2022-09-16T06:08:30;1.75;;;1.65;;
37931;SDS011;23758;42.640;23.302;2022-09-16T06:11:01;1.60;;;1.50;;
37931;SDS011;23758;42.640;23.302;2022-09-16T06:13:28;2.83;;;1.63;;
37931;SDS011;23758;42.640;23.302;2022-09-16T06:15:54;1.50;;;1.40;;
37931;SDS011;23758;42.640;23.302;2022-09-16T06:18:20;1.95;;;1.75;;
37931;SDS011;23758;42.640;23.302;2022-09-16T06:20:47;1.83;;;1.73;;
37931;SDS011;23758;42.640;23.302;2022-09-16T06:23:13;1.83;;;1.67;;
37931;SDS011;23758;42.640;23.302;2022-09-16T06:25:39;3.83;;;2.28;;
37931;SDS011;23758;42.640;23.302;2022-09-16T06:28:05;1.70;;;1.52;;
37931;SDS011;23758;42.640;23.302;2022-09-16T06:30:30;1.38;;;1.30;;
37931;SDS011;23758;42.640;23.302;2022-09-16T06:32:56;1.55;;;1.45;;
37931;SDS011;23758;42.640;23.302;2022-09-16T06:35:21;1.15;;;1.15;;
37931;SDS011;23758;42.640;23.302;2022-09-16T06:37:47;1.60;;;1.40;;
37931;SDS011;23758;42.640;23.302;2022-09-16T06:40:12;1.85;;;1.75;;
37931;SDS011;23758;42.640;23.302;2022-09-16T06:42:38;1.38;;;1.27;;
37931;SDS011;23758;42.640;23.302;2022-09-16T06:45:04;4.10;;;2.08;;
37931;SDS011;23758;42.640;23.302;2022-09-16T06:47:30;1.38;;;1.27;;
37931;SDS011;23758;42.640;23.302;2022-09-16T06:49:57;1.35;;;1.25;;
37931;SDS011;23758;42.640;23.302;2022-09-16T06:52:26;1.33;;;1.23;;
37931;SDS011;23758;42.640;23.302;2022-09-16T06:54:52;1.60;;;1.50;;
37931;SDS011;23758;42.640;23.302;2022-09-16T06:57:18;1.30;;;1.20;;
37931;SDS011;23758;42.640;23.302;2022-09-16T06:59:47;1.50;;;1.40;;
37931;SDS011;23758;42.640;23.302;2022-09-16T07:02:13;1.85;;;1.65;;
37931;SDS011;23758;42.640;23.302;2022-09-16T07:04:39;3.30;;;1.65;;
37931;SDS011;23758;42.640;23.302;2022-09-16T07:07:04;1.50;;;1.40;;
37931;SDS011;23758;42.640;23.302;2022-09-16T07:09:30;1.38;;;1.27;;
37931;SDS011;23758;42.640;23.302;2022-09-16T07:11:56;1.48;;;1.38;;
37931;SDS011;23758;42.640;23.302;2022-09-16T07:14:23;1.20;;;1.20;;
37931;SDS011;23758;42.640;23.302;2022-09-16T07:16:49;1.00;;;1.00;;
37931;SDS011;23758;42.640;23.302;2022-09-16T07:19:15;1.40;;;1.30;;
37931;SDS011;23758;42.640;23.302;2022-09-16T07:21:40;2.10;;;1.50;;
37931;SDS011;23758;42.640;23.302;2022-09-16T07:24:06;1.10;;;1.10;;
37931;SDS011;23758;42.640;23.302;2022-09-16T07:26:33;1.38;;;1.27;;
37931;SDS011;23758;42.640;23.302;2022-09-16T07:29:02;1.60;;;1.50;;
37931;SDS011;23758;42.640;23.302;2022-09-16T07:31:29;8.77;;;1.45;;
37931;SDS011;23758;42.640;23.302;2022-09-16T07:33:56;1.52;;;1.42;;
37931;SDS011;23758;42.640;23.302;2022-09-16T07:36:23;2.55;;;1.75;;
37931;SDS011;23758;42.640;23.302;2022-09-16T07:38:50;1.30;;;1.20;;
37931;SDS011;23758;42.640;23.302;2022-09-16T07:41:17;1.33;;;1.23;;
37931;SDS011;23758;42.640;23.302;2022-09-16T07:43:44;1.40;;;1.30;;
37931;SDS011;23758;42.640;23.302;2022-09-16T07:46:11;1.55;;;1.45;;
37931;SDS011;23758;42.640;23.302;2022-09-16T07:48:38;1.92;;;1.17;;
37931;SDS011;23758;42.640;23.302;2022-09-16T07:51:08;1.63;;;1.52;;
37931;SDS011;23758;42.640;23.302;2022-09-16T07:53:34;3.33;;;1.60;;
37931;SDS011;23758;42.640;23.302;2022-09-16T07:56:01;2.85;;;1.35;;
37931;SDS011;23758;42.640;23.302;2022-09-16T07:58:30;1.10;;;1.10;;
37931;SDS011;23758;42.640;23.302;2022-09-16T08:00:56;1.48;;;1.38;;
37931;SDS011;23758;42.640;23.302;2022-09-16T08:03:22;1.10;;;1.10;;
37931;SDS011;23758;42.640;23.302;2022-09-16T08:05:47;1.95;;;1.73;;
37931;SDS011;23758;42.640;23.302;2022-09-16T08:08:13;1.65;;;1.55;;
37931;SDS011;23758;42.640;23.302;2022-09-16T08:10:38;3.20;;;1.83;;
37931;SDS011;23758;42.640;23.302;2022-09-16T08:13:04;1.80;;;1.58;;
37931;SDS011;23758;42.640;23.302;2022-09-16T08:15:31;1.40;;;1.30;;
37931;SDS011;23758;42.640;23.302;2022-09-16T08:17:57;1.50;;;1.40;;
37931;SDS011;23758;42.640;23.302;2022-09-16T08:20:22;1.00;;;1.00;;
37931;SDS011;23758;42.640;23.302;2022-09-16T08:22:49;1.40;;;1.30;;
37931;SDS011;23758;42.640;23.302;2022-09-16T08:25:15;1.40;;;1.30;;
37931;SDS011;23758;42.640;23.302;2022-09-16T08:27:40;1.77;;;1.52;;
37931;SDS011;23758;42.640;23.302;2022-09-16T08:30:06;2.03;;;1.83;;
37931;SDS011;23758;42.640;23.302;2022-09-16T08:32:32;1.50;;;1.40;;
37931;SDS011;23758;42.640;23.302;2022-09-16T08:34:57;1.20;;;1.20;;
37931;SDS011;23758;42.640;23.302;2022-09-16T08:37:23;2.45;;;1.80;;
37931;SDS011;23758;42.640;23.302;2022-09-16T08:39:48;1.85;;;1.50;;
37931;SDS011;23758;42.640;23.302;2022-09-16T08:45:17;1.55;;;1.45;;
37931;SDS011;23758;42.640;23.302;2022-09-16T08:50:32;1.33;;;1.25;;
37931;SDS011;23758;42.640;23.302;2022-09-16T08:53:01;4.32;;;1.35;;
37931;SDS011;23758;42.640;23.302;2022-09-16T08:55:31;1.30;;;1.20;;
37931;SDS011;23758;42.640;23.302;2022-09-16T09:01:05;1.05;;;1.05;;
37931;SDS011;23758;42.640;23.302;2022-09-16T09:03:47;5.68;;;1.75;;
37931;SDS011;23758;42.640;23.302;2022-09-16T09:06:20;1.33;;;1.25;;
37931;SDS011;23758;42.640;23.302;2022-09-16T09:32:48;1.40;;;1.30;;
37931;SDS011;23758;42.640;23.302;2022-09-16T09:40:48;1.23;;;1.13;;
37931;SDS011;23758;42.640;23.302;2022-09-16T09:43:44;1.42;;;1.30;;
37931;SDS011;23758;42.640;23.302;2022-09-16T09:46:19;1.67;;;1.50;;
37931;SDS011;23758;42.640;23.302;2022-09-16T09:48:49;1.48;;;1.38;;
37931;SDS011;23758;42.640;23.302;2022-09-16T09:51:23;2.83;;;1.83;;
37931;SDS011;23758;42.640;23.302;2022-09-16T09:56:20;1.30;;;1.20;;
37931;SDS011;23758;42.640;23.302;2022-09-16T10:01:21;2.25;;;1.65;;
37931;SDS011;23758;42.640;23.302;2022-09-16T10:03:47;2.03;;;1.88;;
37931;SDS011;23758;42.640;23.302;2022-09-16T10:06:13;1.30;;;1.20;;
37931;SDS011;23758;42.640;23.302;2022-09-16T10:08:47;1.35;;;1.25;;
37931;SDS011;23758;42.640;23.302;2022-09-16T10:11:15;1.23;;;1.17;;
37931;SDS011;23758;42.640;23.302;2022-09-16T10:13:47;1.77;;;1.67;;
37931;SDS011;23758;42.640;23.302;2022-09-16T10:16:15;1.40;;;1.30;;
37931;SDS011;23758;42.640;23.302;2022-09-16T10:18:52;1.85;;;1.75;;
37931;SDS011;23758;42.640;23.302;2022-09-16T10:21:20;1.70;;;1.60;;
37931;SDS011;23758;42.640;23.302;2022-09-16T10:23:52;2.00;;;1.90;;
37931;SDS011;23758;42.640;23.302;2022-09-16T10:26:20;1.52;;;1.42;;
37931;SDS011;23758;42.640;23.302;2022-09-16T10:28:54;1.70;;;1.60;;
37931;SDS011;23758;42.640;23.302;2022-09-16T10:31:28;1.50;;;1.40;;
37931;SDS011;23758;42.640;23.302;2022-09-16T10:34:01;1.90;;;1.80;;
37931;SDS011;23758;42.640;23.302;2022-09-16T10:36:31;2.30;;;2.00;;
37931;SDS011;23758;42.640;23.302;2022-09-16T10:38:59;2.10;;;2.00;;
37931;SDS011;23758;42.640;23.302;2022-09-16T10:41:26;2.15;;;2.05;;
37931;SDS011;23758;42.640;23.302;2022-09-16T10:46:49;2.00;;;1.90;;
37931;SDS011;23758;42.640;23.302;2022-09-16T10:52:23;1.90;;;1.80;;
37931;SDS011;23758;42.640;23.302;2022-09-16T10:54:51;2.67;;;2.42;;
37931;SDS011;23758;42.640;23.302;2022-09-16T10:57:27;2.00;;;1.90;;
37931;SDS011;23758;42.640;23.302;2022-09-16T11:05:44;2.20;;;2.10;;
37931;SDS011;23758;42.640;23.302;2022-09-16T11:14:10;2.00;;;1.90;;
37931;SDS011;23758;42.640;23.302;2022-09-16T11:57:01;1.13;;;1.10;;
37931;SDS011;23758;42.640;23.302;2022-09-16T11:59:37;1.00;;;1.00;;
37931;SDS011;23758;42.640;23.302;2022-09-16T12:04:42;1.00;;;1.00;;
37931;SDS011;23758;42.640;23.302;2022-09-16T12:12:37;1.00;;;1.00;;
37931;SDS011;23758;42.640;23.302;2022-09-16T12:15:06;1.20;;;1.20;;
37931;SDS011;23758;42.640;23.302;2022-09-16T12:17:37;1.10;;;1.10;;
37931;SDS011;23758;42.640;23.302;2022-09-16T12:20:15;2.15;;;1.48;;
37931;SDS011;23758;42.640;23.302;2022-09-16T12:22:46;1.10;;;1.10;;
37931;SDS011;23758;42.640;23.302;2022-09-16T12:25:16;1.25;;;1.17;;
37931;SDS011;23758;42.640;23.302;2022-09-16T12:27:52;1.00;;;1.00;;
37931;SDS011;23758;42.640;23.302;2022-09-16T12:30:21;1.10;;;1.10;;
37931;SDS011;23758;42.640;23.302;2022-09-16T12:32:55;1.10;;;1.10;;
37931;SDS011;23758;42.640;23.302;2022-09-16T12:35:33;1.65;;;1.55;;
37931;SDS011;23758;42.640;23.302;2022-09-16T12:38:02;1.40;;;1.30;;
37931;SDS011;23758;42.640;23.302;2022-09-16T12:40:29;1.40;;;1.30;;
37931;SDS011;23758;42.640;23.302;2022-09-16T13:02:27;1.50;;;1.40;;
37931;SDS011;23758;42.640;23.302;2022-09-16T13:04:56;1.65;;;1.55;;
37931;SDS011;23758;42.640;23.302;2022-09-16T13:07:24;3.80;;;1.63;;
37931;SDS011;23758;42.640;23.302;2022-09-16T13:09:59;1.90;;;1.80;;
37931;SDS011;23758;42.640;23.302;2022-09-16T13:12:26;1.50;;;1.40;;
37931;SDS011;23758;42.640;23.302;2022-09-16T13:14:53;1.63;;;1.52;;
37931;SDS011;23758;42.640;23.302;2022-09-16T13:17:27;2.58;;;2.38;;
37931;SDS011;23758;42.640;23.302;2022-09-16T13:19:57;2.40;;;2.30;;
37931;SDS011;23758;42.640;23.302;2022-09-16T13:22:46;1.80;;;1.70;;
37931;SDS011;23758;42.640;23.302;2022-09-16T13:27:55;1.80;;;1.70;;
37931;SDS011;23758;42.640;23.302;2022-09-16T13:30:29;1.80;;;1.70;;
37931;SDS011;23758;42.640;23.302;2022-09-16T13:32:58;1.80;;;1.70;;
37931;SDS011;23758;42.640;23.302;2022-09-16T13:38:10;2.05;;;1.95;;
37931;SDS011;23758;42.640;23.302;2022-09-16T13:40:54;2.33;;;2.17;;
37931;SDS011;23758;42.640;23.302;2022-09-16T13:43:34;2.65;;;2.45;;
37931;SDS011;23758;42.640;23.302;2022-09-16T13:46:03;2.35;;;2.25;;
37931;SDS011;23758;42.640;23.302;2022-09-16T13:48:33;2.17;;;2.08;;
37931;SDS011;23758;42.640;23.302;2022-09-16T13:51:05;1.90;;;1.80;;
37931;SDS011;23758;42.640;23.302;2022-09-16T13:53:35;2.00;;;1.90;;
37931;SDS011;23758;42.640;23.302;2022-09-16T13:59:21;1.90;;;1.80;;
37931;SDS011;23758;42.640;23.302;2022-09-16T14:10:13;1.63;;;1.52;;
37931;SDS011;23758;42.640;23.302;2022-09-16T14:15:25;2.10;;;1.90;;
37931;SDS011;23758;42.640;23.302;2022-09-16T14:17:57;2.40;;;2.20;;
37931;SDS011;23758;42.640;23.302;2022-09-16T14:20:23;1.63;;;1.52;;
37931;SDS011;23758;42.640;23.302;2022-09-16T14:22:59;3.08;;;2.17;;
37931;SDS011;23758;42.640;23.302;2022-09-16T14:25:35;2.03;;;1.92;;
37931;SDS011;23758;42.640;23.302;2022-09-16T14:30:45;2.50;;;2.35;;
37931;SDS011;23758;42.640;23.302;2022-09-16T14:33:12;1.70;;;1.60;;
37931;SDS011;23758;42.640;23.302;2022-09-16T14:35:37;1.60;;;1.50;;
37931;SDS011;23758;42.640;23.302;2022-09-16T14:38:03;1.60;;;1.50;;
37931;SDS011;23758;42.640;23.302;2022-09-16T14:40:29;1.80;;;1.70;;
37931;SDS011;23758;42.640;23.302;2022-09-16T14:45:30;1.67;;;1.58;;
37931;SDS011;23758;42.640;23.302;2022-09-16T14:47:58;9.48;;;2.13;;
37931;SDS011;23758;42.640;23.302;2022-09-16T14:50:32;1.63;;;1.52;;
37931;SDS011;23758;42.640;23.302;2022-09-16T14:53:03;1.77;;;1.67;;
37931;SDS011;23758;42.640;23.302;2022-09-16T14:55:31;2.72;;;1.85;;
37931;SDS011;23758;42.640;23.302;2022-09-16T14:58:00;2.20;;;1.98;;
37931;SDS011;23758;42.640;23.302;2022-09-16T15:00:41;1.70;;;1.60;;
37931;SDS011;23758;42.640;23.302;2022-09-16T15:03:13;1.60;;;1.50;;
37931;SDS011;23758;42.640;23.302;2022-09-16T15:05:43;1.75;;;1.65;;
37931;SDS011;23758;42.640;23.302;2022-09-16T15:08:21;1.70;;;1.60;;
37931;SDS011;23758;42.640;23.302;2022-09-16T15:11:00;1.70;;;1.60;;
37931;SDS011;23758;42.640;23.302;2022-09-16T15:13:29;1.60;;;1.50;;
37931;SDS011;23758;42.640;23.302;2022-09-16T15:16:18;1.70;;;1.60;;
37931;SDS011;23758;42.640;23.302;2022-09-16T15:19:03;1.38;;;1.30;;
37931;SDS011;23758;42.640;23.302;2022-09-16T15:21:31;1.60;;;1.50;;
37931;SDS011;23758;42.640;23.302;2022-09-16T15:23:58;1.60;;;1.50;;
37931;SDS011;23758;42.640;23.302;2022-09-16T15:26:44;1.60;;;1.50;;
37931;SDS011;23758;42.640;23.302;2022-09-16T15:31:42;1.40;;;1.30;;
37931;SDS011;23758;42.640;23.302;2022-09-16T15:42:10;1.55;;;1.45;;
37931;SDS011;23758;42.640;23.302;2022-09-16T15:47:19;1.80;;;1.70;;
37931;SDS011;23758;42.640;23.302;2022-09-16T15:52:18;1.80;;;1.70;;
37931;SDS011;23758;42.640;23.302;2022-09-16T16:00:07;1.80;;;1.70;;
37931;SDS011;23758;42.640;23.302;2022-09-16T16:02:45;1.77;;;1.67;;
37931;SDS011;23758;42.640;23.302;2022-09-16T16:05:20;1.80;;;1.70;;
37931;SDS011;23758;42.640;23.302;2022-09-16T16:07:48;2.08;;;1.98;;
37931;SDS011;23758;42.640;23.302;2022-09-16T16:10:20;1.70;;;1.60;;
37931;SDS011;23758;42.640;23.302;2022-09-16T16:12:55;1.77;;;1.67;;
37931;SDS011;23758;42.640;23.302;2022-09-16T16:15:24;1.90;;;1.80;;
37931;SDS011;23758;42.640;23.302;2022-09-16T16:17:52;1.90;;;1.80;;
37931;SDS011;23758;42.640;23.302;2022-09-16T16:20:19;1.80;;;1.70;;
37931;SDS011;23758;42.640;23.302;2022-09-16T16:22:45;1.50;;;1.40;;
37931;SDS011;23758;42.640;23.302;2022-09-16T16:25:11;1.80;;;1.70;;
37931;SDS011;23758;42.640;23.302;2022-09-16T16:27:37;1.90;;;1.80;;
37931;SDS011;23758;42.640;23.302;2022-09-16T16:30:04;1.98;;;1.88;;
37931;SDS011;23758;42.640;23.302;2022-09-16T16:32:30;1.90;;;1.80;;
37931;SDS011;23758;42.640;23.302;2022-09-16T16:34:56;1.95;;;1.85;;
37931;SDS011;23758;42.640;23.302;2022-09-16T16:37:22;2.17;;;2.08;;
37931;SDS011;23758;42.640;23.302;2022-09-16T16:39:49;5.57;;;1.90;;
37931;SDS011;23758;42.640;23.302;2022-09-16T16:42:15;1.70;;;1.60;;
37931;SDS011;23758;42.640;23.302;2022-09-16T16:44:40;1.98;;;1.88;;
37931;SDS011;23758;42.640;23.302;2022-09-16T16:47:06;2.08;;;1.98;;
37931;SDS011;23758;42.640;23.302;2022-09-16T16:49:33;1.73;;;1.63;;
37931;SDS011;23758;42.640;23.302;2022-09-16T16:51:59;1.90;;;1.80;;
37931;SDS011;23758;42.640;23.302;2022-09-16T16:54:25;1.80;;;1.70;;
37931;SDS011;23758;42.640;23.302;2022-09-16T16:56:51;1.75;;;1.65;;
37931;SDS011;23758;42.640;23.302;2022-09-16T16:59:17;2.40;;;2.30;;
37931;SDS011;23758;42.640;23.302;2022-09-16T17:01:43;2.08;;;1.98;;
37931;SDS011;23758;42.640;23.302;2022-09-16T17:04:10;2.30;;;2.10;;
37931;SDS011;23758;42.640;23.302;2022-09-16T17:06:36;2.03;;;1.92;;
37931;SDS011;23758;42.640;23.302;2022-09-16T17:09:03;2.00;;;1.90;;
37931;SDS011;23758;42.640;23.302;2022-09-16T17:11:29;1.90;;;1.80;;
37931;SDS011;23758;42.640;23.302;2022-09-16T17:14:00;3.50;;;2.10;;
37931;SDS011;23758;42.640;23.302;2022-09-16T17:16:30;2.00;;;1.90;;
37931;SDS011;23758;42.640;23.302;2022-09-16T17:18:59;1.98;;;1.85;;
37931;SDS011;23758;42.640;23.302;2022-09-16T17:21:30;1.90;;;1.80;;
37931;SDS011;23758;42.640;23.302;2022-09-16T17:23:56;2.40;;;2.20;;
37931;SDS011;23758;42.640;23.302;2022-09-16T17:26:22;2.03;;;1.92;;
37931;SDS011;23758;42.640;23.302;2022-09-16T17:28:48;2.22;;;2.13;;
37931;SDS011;23758;42.640;23.302;2022-09-16T17:31:25;2.00;;;1.90;;
37931;SDS011;23758;42.640;23.302;2022-09-16T17:33:57;2.00;;;1.90;;
37931;SDS011;23758;42.640;23.302;2022-09-16T17:36:26;2.00;;;1.90;;
37931;SDS011;23758;42.640;23.302;2022-09-16T17:38:55;2.47;;;2.28;;
37931;SDS011;23758;42.640;23.302;2022-09-16T17:41:22;2.03;;;1.92;;
37931;SDS011;23758;42.640;23.302;2022-09-16T17:43:47;2.53;;;2.35;;
37931;SDS011;23758;42.640;23.302;2022-09-16T17:46:16;1.92;;;1.83;;
37931;SDS011;23758;42.640;23.302;2022-09-16T17:48:44;2.25;;;2.15;;
37931;SDS011;23758;42.640;23.302;2022-09-16T17:51:12;2.30;;;2.10;;
37931;SDS011;23758;42.640;23.302;2022-09-16T17:53:37;2.30;;;2.20;;
37931;SDS011;23758;42.640;23.302;2022-09-16T17:56:07;2.10;;;2.00;;
37931;SDS011;23758;42.640;23.302;2022-09-16T17:58:35;2.00;;;1.90;;
37931;SDS011;23758;42.640;23.302;2022-09-16T18:01:15;5.32;;;2.20;;
37931;SDS011;23758;42.640;23.302;2022-09-16T18:03:42;2.20;;;2.10;;
37931;SDS011;23758;42.640;23.302;2022-09-16T18:06:13;2.80;;;2.22;;
37931;SDS011;23758;42.640;23.302;2022-09-16T18:08:40;2.20;;;2.10;;
37931;SDS011;23758;42.640;23.302;2022-09-16T18:11:07;2.10;;;2.00;;
37931;SDS011;23758;42.640;23.302;2022-09-16T18:13:33;2.33;;;2.17;;
37931;SDS011;23758;42.640;23.302;2022-09-16T18:16:18;2.55;;;2.35;;
37931;SDS011;23758;42.640;23.302;2022-09-16T18:18:44;2.33;;;2.20;;
37931;SDS011;23758;42.640;23.302;2022-09-16T18:21:11;2.20;;;2.10;;
37931;SDS011;23758;42.640;23.302;2022-09-16T18:23:42;3.78;;;2.80;;
37931;SDS011;23758;42.640;23.302;2022-09-16T18:26:09;2.63;;;2.42;;
37931;SDS011;23758;42.640;23.302;2022-09-16T18:28:36;2.20;;;2.10;;
37931;SDS011;23758;42.640;23.302;2022-09-16T18:31:12;2.08;;;1.98;;
37931;SDS011;23758;42.640;23.302;2022-09-16T18:33:39;2.10;;;2.00;;
37931;SDS011;23758;42.640;23.302;2022-09-16T18:36:06;2.20;;;2.10;;
37931;SDS011;23758;42.640;23.302;2022-09-16T18:38:33;2.45;;;2.33;;
37931;SDS011;23758;42.640;23.302;2022-09-16T18:43:28;2.42;;;2.33;;
37931;SDS011;23758;42.640;23.302;2022-09-16T18:45:54;2.53;;;2.35;;
37931;SDS011;23758;42.640;23.302;2022-09-16T18:48:19;2.40;;;2.30;;
37931;SDS011;23758;42.640;23.302;2022-09-16T18:50:45;2.40;;;2.30;;
37931;SDS011;23758;42.640;23.302;2022-09-16T18:53:10;2.70;;;2.50;;